Currently 87°F in Murrieta, California, USA
87°F
87°F / 44°F
calm
0.00"
Tuesday, November 30, 2021 1:33 PM PST

Murrieta, California Weather Summary
Last 36 Hours

Temperature Winds Hourly Humidity Dewpoint
Time Report Norm Report Norm Max Gusts Precip. Rpt. Norm Rpt. Norm Pressure
1,2Tue 01:33 PM  87.1°F  68°F  calm  4 mph  none  0.00"  11%  39%  25°F  41°F  N/A
Tue 01:00 PM  86.7°F  68°F  calm  4 mph  none  0.00"  12%  39%  25°F  41°F  N/A
Tue 12:00 PM  84.2°F  67°F  calm  3 mph  none  0.00"  13%  42%  27°F  42°F  N/A
Tue 11:00 AM  79.7°F  64°F  calm  3 mph  none  0.00"  19%  47%  32°F  42°F  N/A
Tue 10:00 AM  70.4°F  59°F  calm  2 mph  none  0.00"  35%  55%  41°F  43°F  N/A
Tue 09:00 AM  61.0°F  54°F  calm  2 mph  none  0.00"  47%  66%  40°F  42°F  N/A
Tue 08:00 AM  50.1°F  48°F  calm  1 mph  none  0.00"  67%  75%  39°F  41°F  N/A
Tue 07:00 AM  44.0°F  45°F  calm  1 mph  none  0.00"  73%  78%  35°F  38°F  N/A
3Tue 06:50 AM  43.9°F  45°F  calm  1 mph  none  ----  72%  78%  35°F  38°F  N/A
Tue 06:00 AM  45.7°F  45°F  calm  1 mph  none  0.00"  68%  78%  35°F  38°F  N/A
Tue 05:00 AM  47.0°F  46°F  calm  1 mph  none  0.00"  63%  76%  35°F  38°F  N/A
Tue 04:00 AM  47.4°F  46°F  calm  1 mph  none  0.00"  61%  75%  34°F  38°F  N/A
Tue 03:00 AM  47.4°F  47°F  calm  1 mph  none  0.00"  64%  74%  35°F  38°F  N/A
Tue 02:00 AM  51.0°F  47°F  calm  1 mph  none  0.00"  55%  73%  35°F  39°F  N/A
Tue 01:00 AM  52.5°F  48°F  calm  1 mph  none  0.00"  52%  71%  34°F  39°F  N/A
Tue 12:00 AM  53.8°F  49°F  calm  1 mph  none  0.00"  49%  70%  34°F  39°F  N/A
Mon 11:00 PM  54.5°F  50°F  calm  1 mph  none  0.00"  51%  69%  36°F  40°F  N/A
Mon 10:00 PM  57.2°F  51°F  calm  1 mph  none  0.00"  43%  67%  34°F  40°F  N/A
Mon 09:00 PM  59.4°F  52°F  calm  1 mph  none  0.00"  41%  65%  35°F  40°F  N/A
Mon 08:00 PM  61.6°F  53°F  calm  2 mph  none  0.00"  38%  63%  35°F  41°F  N/A
Mon 07:00 PM  63.5°F  55°F  calm  2 mph  none  0.00"  37%  60%  36°F  41°F  N/A
Mon 06:00 PM  67.3°F  57°F  calm  3 mph  none  0.00"  30%  57%  33°F  41°F  N/A
Mon 05:00 PM  72.7°F  60°F  calm  3 mph  none  0.00"  27%  53%  36°F  42°F  N/A
Mon 04:00 PM  77.9°F  63°F  calm  4 mph  none  0.00"  22%  47%  34°F  42°F  N/A
Mon 03:00 PM  83.8°F  68°F  calm  3 mph  none  0.00"  15%  40%  29°F  42°F  N/A
Mon 02:00 PM  85.3°F  69°F  calm  4 mph  none  0.00"  12%  38%  24°F  41°F  N/A
Mon 01:00 PM  86.4°F  69°F  calm  4 mph  none  0.00"  12%  39%  25°F  41°F  N/A
Mon 12:00 PM  84.0°F  67°F  calm  3 mph  none  0.00"  13%  41%  27°F  42°F  N/A
Mon 11:00 AM  79.5°F  64°F  calm  3 mph  none  0.00"  18%  46%  30°F  43°F  N/A
Mon 10:00 AM  72.1°F  60°F  calm  2 mph  none  0.00"  27%  55%  35°F  43°F  N/A
Mon 09:00 AM  62.1°F  55°F  calm  2 mph  none  0.00"  43%  66%  38°F  43°F  N/A
Mon 08:00 AM  50.9°F  49°F  calm  1 mph  none  0.00"  54%  76%  34°F  41°F  N/A
Mon 07:00 AM  44.6°F  45°F  calm  1 mph  none  0.00"  65%  79%  33°F  39°F  N/A
Mon 06:00 AM  45.3°F  45°F  calm  1 mph  none  0.00"  65%  78%  34°F  38°F  N/A
Mon 05:00 AM  45.7°F  46°F  calm  1 mph  none  0.00"  62%  77%  33°F  39°F  N/A
Mon 04:00 AM  45.5°F  47°F  calm  1 mph  none  0.00"  60%  75%  32°F  39°F  N/A
Mon 03:00 AM  49.8°F  47°F  calm  1 mph  none  0.00"  51%  74%  32°F  39°F  N/A
Mon 02:00 AM  49.5°F  48°F  calm  1 mph  none  0.00"  49%  73%  30°F  39°F  N/A

  1. Current weather data. No green row appears if the current weather data is also the high or low for the current day.
  2. High temperature for the current day.
  3. Low temperature for the current day.

The Murrieta weather pages are a service of WeatherCurrents. Murrieta, California is located in the Temecula Valley, in southwestern Riverside County, at the junctions of the Interstate 15 and 215 highways.
Copyright ©2021  WeatherCurrents. All rights reserved. - Submit questions and comments - Privacy Policy

This page automatically refreshes every 10 minutes.